sensor_id;sensor_type;location;lat;lon;timestamp;P1;durP1;ratioP1;P2;durP2;ratioP2
48215;SDS011;34005;48.844;10.098;2023-09-12T00:01:12;13.30;;;4.95;;
48215;SDS011;34005;48.844;10.098;2023-09-12T00:03:40;15.43;;;4.88;;
48215;SDS011;34005;48.844;10.098;2023-09-12T00:06:07;12.18;;;4.90;;
48215;SDS011;34005;48.844;10.098;2023-09-12T00:08:35;13.07;;;5.07;;
48215;SDS011;34005;48.844;10.098;2023-09-12T00:11:05;9.10;;;4.90;;
48215;SDS011;34005;48.844;10.098;2023-09-12T00:13:38;11.63;;;4.88;;
48215;SDS011;34005;48.844;10.098;2023-09-12T00:16:07;8.68;;;4.60;;
48215;SDS011;34005;48.844;10.098;2023-09-12T00:18:37;16.42;;;5.40;;
48215;SDS011;34005;48.844;10.098;2023-09-12T00:21:05;15.00;;;4.82;;
48215;SDS011;34005;48.844;10.098;2023-09-12T00:23:33;16.70;;;5.43;;
48215;SDS011;34005;48.844;10.098;2023-09-12T00:26:00;11.63;;;4.20;;
48215;SDS011;34005;48.844;10.098;2023-09-12T00:28:28;11.05;;;4.60;;
48215;SDS011;34005;48.844;10.098;2023-09-12T00:30:57;11.05;;;4.82;;
48215;SDS011;34005;48.844;10.098;2023-09-12T00:33:25;14.80;;;5.07;;
48215;SDS011;34005;48.844;10.098;2023-09-12T00:35:52;13.13;;;4.97;;
48215;SDS011;34005;48.844;10.098;2023-09-12T00:38:20;13.38;;;5.18;;
48215;SDS011;34005;48.844;10.098;2023-09-12T00:40:47;7.43;;;4.05;;
48215;SDS011;34005;48.844;10.098;2023-09-12T00:43:15;9.65;;;4.72;;
48215;SDS011;34005;48.844;10.098;2023-09-12T00:45:43;13.25;;;4.47;;
48215;SDS011;34005;48.844;10.098;2023-09-12T00:48:14;13.85;;;5.35;;
48215;SDS011;34005;48.844;10.098;2023-09-12T00:50:44;10.40;;;4.47;;
48215;SDS011;34005;48.844;10.098;2023-09-12T00:53:13;11.63;;;5.00;;
48215;SDS011;34005;48.844;10.098;2023-09-12T00:55:42;9.82;;;4.10;;
48215;SDS011;34005;48.844;10.098;2023-09-12T00:58:13;12.90;;;5.03;;
48215;SDS011;34005;48.844;10.098;2023-09-12T01:00:41;11.38;;;4.43;;
48215;SDS011;34005;48.844;10.098;2023-09-12T01:03:09;13.15;;;4.88;;
48215;SDS011;34005;48.844;10.098;2023-09-12T01:05:38;11.05;;;4.82;;
48215;SDS011;34005;48.844;10.098;2023-09-12T01:08:08;14.97;;;4.80;;
48215;SDS011;34005;48.844;10.098;2023-09-12T01:10:36;12.45;;;5.70;;
48215;SDS011;34005;48.844;10.098;2023-09-12T01:13:04;11.40;;;4.85;;
48215;SDS011;34005;48.844;10.098;2023-09-12T01:15:33;9.55;;;4.45;;
48215;SDS011;34005;48.844;10.098;2023-09-12T01:18:00;12.40;;;5.20;;
48215;SDS011;34005;48.844;10.098;2023-09-12T01:20:30;10.25;;;4.90;;
48215;SDS011;34005;48.844;10.098;2023-09-12T01:23:04;6.57;;;4.15;;
48215;SDS011;34005;48.844;10.098;2023-09-12T01:26:01;11.30;;;4.53;;
48215;SDS011;34005;48.844;10.098;2023-09-12T01:28:40;9.50;;;4.47;;
48215;SDS011;34005;48.844;10.098;2023-09-12T01:31:12;15.40;;;5.30;;
48215;SDS011;34005;48.844;10.098;2023-09-12T01:33:40;10.02;;;4.72;;
48215;SDS011;34005;48.844;10.098;2023-09-12T01:36:08;9.43;;;5.10;;
48215;SDS011;34005;48.844;10.098;2023-09-12T01:38:37;11.10;;;5.50;;
48215;SDS011;34005;48.844;10.098;2023-09-12T01:41:06;11.45;;;5.68;;
48215;SDS011;34005;48.844;10.098;2023-09-12T01:43:34;10.82;;;4.75;;
48215;SDS011;34005;48.844;10.098;2023-09-12T01:46:07;11.52;;;5.82;;
48215;SDS011;34005;48.844;10.098;2023-09-12T01:48:35;11.82;;;5.72;;
48215;SDS011;34005;48.844;10.098;2023-09-12T01:51:04;12.82;;;6.45;;
48215;SDS011;34005;48.844;10.098;2023-09-12T01:53:34;8.98;;;5.25;;
48215;SDS011;34005;48.844;10.098;2023-09-12T01:56:03;11.10;;;5.32;;
48215;SDS011;34005;48.844;10.098;2023-09-12T01:58:31;11.15;;;5.93;;
48215;SDS011;34005;48.844;10.098;2023-09-12T02:00:58;13.40;;;6.03;;
48215;SDS011;34005;48.844;10.098;2023-09-12T02:03:28;13.77;;;5.75;;
48215;SDS011;34005;48.844;10.098;2023-09-12T02:05:55;12.35;;;5.22;;
48215;SDS011;34005;48.844;10.098;2023-09-12T02:08:23;13.43;;;4.95;;
48215;SDS011;34005;48.844;10.098;2023-09-12T02:10:51;7.07;;;4.25;;
48215;SDS011;34005;48.844;10.098;2023-09-12T02:13:18;12.75;;;5.40;;
48215;SDS011;34005;48.844;10.098;2023-09-12T02:15:46;7.00;;;4.38;;
48215;SDS011;34005;48.844;10.098;2023-09-12T02:18:14;7.28;;;4.47;;
48215;SDS011;34005;48.844;10.098;2023-09-12T02:20:43;14.43;;;4.75;;
48215;SDS011;34005;48.844;10.098;2023-09-12T02:23:12;8.93;;;5.15;;
48215;SDS011;34005;48.844;10.098;2023-09-12T02:28:10;12.10;;;4.65;;
48215;SDS011;34005;48.844;10.098;2023-09-12T02:30:38;9.98;;;5.13;;
48215;SDS011;34005;48.844;10.098;2023-09-12T02:33:07;9.82;;;4.75;;
48215;SDS011;34005;48.844;10.098;2023-09-12T02:35:36;12.90;;;5.00;;
48215;SDS011;34005;48.844;10.098;2023-09-12T02:38:09;9.30;;;5.28;;
48215;SDS011;34005;48.844;10.098;2023-09-12T02:40:41;12.00;;;5.47;;
48215;SDS011;34005;48.844;10.098;2023-09-12T02:43:11;14.60;;;4.78;;
48215;SDS011;34005;48.844;10.098;2023-09-12T02:45:45;9.15;;;4.80;;
48215;SDS011;34005;48.844;10.098;2023-09-12T02:48:15;9.13;;;4.85;;
48215;SDS011;34005;48.844;10.098;2023-09-12T02:50:45;10.23;;;5.00;;
48215;SDS011;34005;48.844;10.098;2023-09-12T02:53:19;11.68;;;5.70;;
48215;SDS011;34005;48.844;10.098;2023-09-12T02:55:51;8.45;;;4.68;;
48215;SDS011;34005;48.844;10.098;2023-09-12T02:58:21;10.23;;;4.95;;
48215;SDS011;34005;48.844;10.098;2023-09-12T03:00:50;13.50;;;5.43;;
48215;SDS011;34005;48.844;10.098;2023-09-12T03:03:21;8.13;;;4.35;;
48215;SDS011;34005;48.844;10.098;2023-09-12T03:05:57;7.63;;;4.65;;
48215;SDS011;34005;48.844;10.098;2023-09-12T03:08:29;13.80;;;6.18;;
48215;SDS011;34005;48.844;10.098;2023-09-12T03:10:59;13.30;;;5.97;;
48215;SDS011;34005;48.844;10.098;2023-09-12T03:13:31;11.15;;;5.78;;
48215;SDS011;34005;48.844;10.098;2023-09-12T03:16:00;18.52;;;6.03;;
48215;SDS011;34005;48.844;10.098;2023-09-12T03:18:31;8.18;;;5.20;;
48215;SDS011;34005;48.844;10.098;2023-09-12T03:21:02;9.48;;;5.45;;
48215;SDS011;34005;48.844;10.098;2023-09-12T03:23:36;9.65;;;4.78;;
48215;SDS011;34005;48.844;10.098;2023-09-12T03:26:07;9.93;;;5.57;;
48215;SDS011;34005;48.844;10.098;2023-09-12T03:28:37;11.70;;;5.60;;
48215;SDS011;34005;48.844;10.098;2023-09-12T03:33:42;13.10;;;6.60;;
48215;SDS011;34005;48.844;10.098;2023-09-12T03:36:16;11.57;;;6.50;;
48215;SDS011;34005;48.844;10.098;2023-09-12T03:38:48;12.77;;;5.35;;
48215;SDS011;34005;48.844;10.098;2023-09-12T03:41:18;7.55;;;4.80;;
48215;SDS011;34005;48.844;10.098;2023-09-12T03:43:49;14.55;;;5.22;;
48215;SDS011;34005;48.844;10.098;2023-09-12T03:46:21;9.17;;;5.27;;
48215;SDS011;34005;48.844;10.098;2023-09-12T03:48:50;10.90;;;5.65;;
48215;SDS011;34005;48.844;10.098;2023-09-12T03:51:19;8.32;;;5.03;;
48215;SDS011;34005;48.844;10.098;2023-09-12T03:53:53;7.80;;;5.32;;
48215;SDS011;34005;48.844;10.098;2023-09-12T03:56:23;9.93;;;5.38;;
48215;SDS011;34005;48.844;10.098;2023-09-12T03:58:51;9.07;;;5.43;;
48215;SDS011;34005;48.844;10.098;2023-09-12T04:01:24;11.95;;;5.93;;
48215;SDS011;34005;48.844;10.098;2023-09-12T04:03:55;12.68;;;6.40;;
48215;SDS011;34005;48.844;10.098;2023-09-12T04:06:28;12.45;;;5.38;;
48215;SDS011;34005;48.844;10.098;2023-09-12T04:08:59;13.23;;;5.38;;
48215;SDS011;34005;48.844;10.098;2023-09-12T04:11:28;13.70;;;5.40;;
48215;SDS011;34005;48.844;10.098;2023-09-12T04:14:12;12.35;;;5.25;;
48215;SDS011;34005;48.844;10.098;2023-09-12T04:16:43;13.65;;;6.45;;
48215;SDS011;34005;48.844;10.098;2023-09-12T04:19:13;9.88;;;5.78;;
48215;SDS011;34005;48.844;10.098;2023-09-12T04:21:43;10.80;;;6.32;;
48215;SDS011;34005;48.844;10.098;2023-09-12T04:24:15;12.40;;;6.13;;
48215;SDS011;34005;48.844;10.098;2023-09-12T04:26:46;11.88;;;6.50;;
48215;SDS011;34005;48.844;10.098;2023-09-12T04:29:16;11.02;;;5.75;;
48215;SDS011;34005;48.844;10.098;2023-09-12T04:31:46;13.50;;;6.45;;
48215;SDS011;34005;48.844;10.098;2023-09-12T04:34:15;11.25;;;6.47;;
48215;SDS011;34005;48.844;10.098;2023-09-12T04:36:47;11.30;;;6.68;;
48215;SDS011;34005;48.844;10.098;2023-09-12T04:39:18;10.07;;;6.45;;
48215;SDS011;34005;48.844;10.098;2023-09-12T04:41:48;13.65;;;6.38;;
48215;SDS011;34005;48.844;10.098;2023-09-12T04:44:22;14.35;;;6.85;;
48215;SDS011;34005;48.844;10.098;2023-09-12T04:46:53;10.60;;;6.43;;
48215;SDS011;34005;48.844;10.098;2023-09-12T04:49:31;12.98;;;6.07;;
48215;SDS011;34005;48.844;10.098;2023-09-12T04:52:08;14.40;;;6.68;;
48215;SDS011;34005;48.844;10.098;2023-09-12T04:54:42;13.77;;;6.88;;
48215;SDS011;34005;48.844;10.098;2023-09-12T04:57:22;12.85;;;5.82;;
48215;SDS011;34005;48.844;10.098;2023-09-12T04:59:54;12.23;;;6.50;;
48215;SDS011;34005;48.844;10.098;2023-09-12T05:02:27;16.35;;;7.10;;
48215;SDS011;34005;48.844;10.098;2023-09-12T05:05:04;16.92;;;6.97;;
48215;SDS011;34005;48.844;10.098;2023-09-12T05:07:35;16.10;;;7.25;;
48215;SDS011;34005;48.844;10.098;2023-09-12T05:10:09;14.35;;;6.70;;
48215;SDS011;34005;48.844;10.098;2023-09-12T05:12:43;15.13;;;6.65;;
48215;SDS011;34005;48.844;10.098;2023-09-12T05:15:15;19.00;;;6.40;;
48215;SDS011;34005;48.844;10.098;2023-09-12T05:17:46;17.02;;;7.40;;
48215;SDS011;34005;48.844;10.098;2023-09-12T05:20:22;12.77;;;6.80;;
48215;SDS011;34005;48.844;10.098;2023-09-12T05:22:52;13.88;;;6.90;;
48215;SDS011;34005;48.844;10.098;2023-09-12T05:25:29;14.00;;;6.40;;
48215;SDS011;34005;48.844;10.098;2023-09-12T05:28:05;15.52;;;6.72;;
48215;SDS011;34005;48.844;10.098;2023-09-12T05:30:57;13.95;;;6.85;;
48215;SDS011;34005;48.844;10.098;2023-09-12T05:33:30;17.58;;;6.55;;
48215;SDS011;34005;48.844;10.098;2023-09-12T05:36:01;9.73;;;6.05;;
48215;SDS011;34005;48.844;10.098;2023-09-12T05:38:44;12.68;;;6.90;;
48215;SDS011;34005;48.844;10.098;2023-09-12T05:41:17;13.65;;;6.15;;
48215;SDS011;34005;48.844;10.098;2023-09-12T05:43:48;12.60;;;6.28;;
48215;SDS011;34005;48.844;10.098;2023-09-12T05:46:22;23.20;;;7.65;;
48215;SDS011;34005;48.844;10.098;2023-09-12T05:48:58;13.27;;;6.13;;
48215;SDS011;34005;48.844;10.098;2023-09-12T05:51:35;16.90;;;7.68;;
48215;SDS011;34005;48.844;10.098;2023-09-12T05:54:15;11.00;;;6.38;;
48215;SDS011;34005;48.844;10.098;2023-09-12T05:56:54;15.73;;;6.03;;
48215;SDS011;34005;48.844;10.098;2023-09-12T05:59:26;16.98;;;6.70;;
48215;SDS011;34005;48.844;10.098;2023-09-12T06:02:01;11.10;;;5.80;;
48215;SDS011;34005;48.844;10.098;2023-09-12T06:04:34;12.77;;;5.80;;
48215;SDS011;34005;48.844;10.098;2023-09-12T06:07:09;15.48;;;6.35;;
48215;SDS011;34005;48.844;10.098;2023-09-12T06:09:44;10.52;;;5.78;;
48215;SDS011;34005;48.844;10.098;2023-09-12T06:12:23;11.00;;;6.40;;
48215;SDS011;34005;48.844;10.098;2023-09-12T06:14:57;10.68;;;5.85;;
48215;SDS011;34005;48.844;10.098;2023-09-12T06:17:33;10.40;;;5.88;;
48215;SDS011;34005;48.844;10.098;2023-09-12T06:20:13;15.60;;;6.88;;
48215;SDS011;34005;48.844;10.098;2023-09-12T06:22:57;13.23;;;6.32;;
48215;SDS011;34005;48.844;10.098;2023-09-12T06:25:48;12.52;;;5.68;;
48215;SDS011;34005;48.844;10.098;2023-09-12T06:28:27;15.25;;;6.05;;
48215;SDS011;34005;48.844;10.098;2023-09-12T06:31:07;15.37;;;5.93;;
48215;SDS011;34005;48.844;10.098;2023-09-12T06:33:46;11.55;;;6.60;;
48215;SDS011;34005;48.844;10.098;2023-09-12T06:36:20;15.43;;;6.63;;
48215;SDS011;34005;48.844;10.098;2023-09-12T06:38:54;10.45;;;6.32;;
48215;SDS011;34005;48.844;10.098;2023-09-12T06:41:28;9.38;;;6.13;;
48215;SDS011;34005;48.844;10.098;2023-09-12T06:44:03;14.50;;;6.35;;
48215;SDS011;34005;48.844;10.098;2023-09-12T06:46:50;13.80;;;6.50;;
48215;SDS011;34005;48.844;10.098;2023-09-12T06:49:25;10.48;;;5.93;;
48215;SDS011;34005;48.844;10.098;2023-09-12T06:52:25;9.68;;;5.82;;
48215;SDS011;34005;48.844;10.098;2023-09-12T06:54:56;19.00;;;6.85;;
48215;SDS011;34005;48.844;10.098;2023-09-12T06:57:35;7.95;;;5.75;;
48215;SDS011;34005;48.844;10.098;2023-09-12T07:00:16;15.82;;;5.88;;
48215;SDS011;34005;48.844;10.098;2023-09-12T07:02:54;10.48;;;5.55;;
48215;SDS011;34005;48.844;10.098;2023-09-12T07:05:42;17.10;;;6.85;;
48215;SDS011;34005;48.844;10.098;2023-09-12T07:08:23;9.98;;;6.05;;
48215;SDS011;34005;48.844;10.098;2023-09-12T07:11:07;11.95;;;5.93;;
48215;SDS011;34005;48.844;10.098;2023-09-12T07:13:50;8.05;;;6.35;;
48215;SDS011;34005;48.844;10.098;2023-09-12T07:16:21;8.45;;;6.10;;
48215;SDS011;34005;48.844;10.098;2023-09-12T07:19:05;10.07;;;6.30;;
48215;SDS011;34005;48.844;10.098;2023-09-12T07:21:36;11.57;;;6.13;;
48215;SDS011;34005;48.844;10.098;2023-09-12T07:24:07;13.15;;;5.75;;
48215;SDS011;34005;48.844;10.098;2023-09-12T07:26:35;12.73;;;6.57;;
48215;SDS011;34005;48.844;10.098;2023-09-12T07:29:05;8.98;;;6.22;;
48215;SDS011;34005;48.844;10.098;2023-09-12T07:31:35;14.40;;;6.72;;
48215;SDS011;34005;48.844;10.098;2023-09-12T07:34:03;11.23;;;6.05;;
48215;SDS011;34005;48.844;10.098;2023-09-12T07:36:34;10.98;;;7.28;;
48215;SDS011;34005;48.844;10.098;2023-09-12T07:39:02;9.45;;;6.47;;
48215;SDS011;34005;48.844;10.098;2023-09-12T07:41:30;10.20;;;7.05;;
48215;SDS011;34005;48.844;10.098;2023-09-12T07:43:58;11.32;;;6.40;;
48215;SDS011;34005;48.844;10.098;2023-09-12T07:46:27;9.00;;;6.15;;
48215;SDS011;34005;48.844;10.098;2023-09-12T07:48:56;10.25;;;5.85;;
48215;SDS011;34005;48.844;10.098;2023-09-12T07:51:24;12.98;;;6.22;;
48215;SDS011;34005;48.844;10.098;2023-09-12T07:53:52;10.80;;;6.13;;
48215;SDS011;34005;48.844;10.098;2023-09-12T07:56:20;9.10;;;6.32;;
48215;SDS011;34005;48.844;10.098;2023-09-12T07:58:48;8.80;;;5.72;;
48215;SDS011;34005;48.844;10.098;2023-09-12T08:01:15;12.38;;;6.18;;
48215;SDS011;34005;48.844;10.098;2023-09-12T08:03:43;9.85;;;5.45;;
48215;SDS011;34005;48.844;10.098;2023-09-12T08:06:13;13.02;;;6.50;;
48215;SDS011;34005;48.844;10.098;2023-09-12T08:08:40;12.15;;;6.22;;
48215;SDS011;34005;48.844;10.098;2023-09-12T08:11:11;13.10;;;6.28;;
48215;SDS011;34005;48.844;10.098;2023-09-12T08:13:38;7.03;;;5.70;;
48215;SDS011;34005;48.844;10.098;2023-09-12T08:16:07;12.65;;;6.18;;
48215;SDS011;34005;48.844;10.098;2023-09-12T08:18:35;11.98;;;6.35;;
48215;SDS011;34005;48.844;10.098;2023-09-12T08:21:02;7.55;;;5.90;;
48215;SDS011;34005;48.844;10.098;2023-09-12T08:23:31;9.90;;;6.15;;
48215;SDS011;34005;48.844;10.098;2023-09-12T08:25:59;9.13;;;5.70;;
48215;SDS011;34005;48.844;10.098;2023-09-12T08:28:26;7.65;;;5.97;;
48215;SDS011;34005;48.844;10.098;2023-09-12T08:30:54;11.63;;;6.75;;
48215;SDS011;34005;48.844;10.098;2023-09-12T08:33:22;10.02;;;6.50;;
48215;SDS011;34005;48.844;10.098;2023-09-12T08:36:06;11.00;;;7.43;;
48215;SDS011;34005;48.844;10.098;2023-09-12T08:38:35;8.38;;;6.45;;
48215;SDS011;34005;48.844;10.098;2023-09-12T08:41:02;6.95;;;6.25;;
48215;SDS011;34005;48.844;10.098;2023-09-12T08:43:30;9.52;;;6.18;;
48215;SDS011;34005;48.844;10.098;2023-09-12T08:45:58;8.98;;;6.90;;
48215;SDS011;34005;48.844;10.098;2023-09-12T08:48:26;8.82;;;6.95;;
48215;SDS011;34005;48.844;10.098;2023-09-12T08:50:55;9.85;;;5.97;;
48215;SDS011;34005;48.844;10.098;2023-09-12T08:53:23;9.52;;;6.43;;
48215;SDS011;34005;48.844;10.098;2023-09-12T08:55:52;6.95;;;6.18;;
48215;SDS011;34005;48.844;10.098;2023-09-12T08:58:20;6.70;;;5.38;;
48215;SDS011;34005;48.844;10.098;2023-09-12T09:00:49;9.90;;;5.03;;
48215;SDS011;34005;48.844;10.098;2023-09-12T09:03:19;7.43;;;5.18;;
48215;SDS011;34005;48.844;10.098;2023-09-12T09:05:48;10.52;;;5.78;;
48215;SDS011;34005;48.844;10.098;2023-09-12T09:08:18;10.95;;;5.55;;
48215;SDS011;34005;48.844;10.098;2023-09-12T09:10:57;9.05;;;5.72;;
48215;SDS011;34005;48.844;10.098;2023-09-12T09:13:28;7.20;;;5.88;;
48215;SDS011;34005;48.844;10.098;2023-09-12T09:16:09;7.22;;;5.75;;
48215;SDS011;34005;48.844;10.098;2023-09-12T09:18:53;7.47;;;6.00;;
48215;SDS011;34005;48.844;10.098;2023-09-12T09:21:22;5.75;;;5.18;;
48215;SDS011;34005;48.844;10.098;2023-09-12T09:23:52;6.25;;;5.65;;
48215;SDS011;34005;48.844;10.098;2023-09-12T09:26:21;6.50;;;5.03;;
48215;SDS011;34005;48.844;10.098;2023-09-12T09:29:02;6.43;;;5.00;;
48215;SDS011;34005;48.844;10.098;2023-09-12T09:31:31;5.20;;;4.72;;
48215;SDS011;34005;48.844;10.098;2023-09-12T09:33:59;6.47;;;4.75;;
48215;SDS011;34005;48.844;10.098;2023-09-12T09:36:27;6.78;;;5.10;;
48215;SDS011;34005;48.844;10.098;2023-09-12T09:38:55;5.53;;;5.03;;
48215;SDS011;34005;48.844;10.098;2023-09-12T09:41:27;6.10;;;5.47;;
48215;SDS011;34005;48.844;10.098;2023-09-12T09:43:55;6.47;;;5.07;;
48215;SDS011;34005;48.844;10.098;2023-09-12T09:46:22;5.53;;;5.00;;
48215;SDS011;34005;48.844;10.098;2023-09-12T09:48:50;5.78;;;5.07;;
48215;SDS011;34005;48.844;10.098;2023-09-12T09:51:18;5.00;;;4.50;;
48215;SDS011;34005;48.844;10.098;2023-09-12T09:53:46;4.95;;;4.55;;
48215;SDS011;34005;48.844;10.098;2023-09-12T09:56:18;7.13;;;4.55;;
48215;SDS011;34005;48.844;10.098;2023-09-12T09:58:47;5.05;;;4.55;;
48215;SDS011;34005;48.844;10.098;2023-09-12T10:01:17;5.82;;;5.32;;
48215;SDS011;34005;48.844;10.098;2023-09-12T10:03:46;6.30;;;4.50;;
48215;SDS011;34005;48.844;10.098;2023-09-12T10:06:15;6.72;;;4.68;;
48215;SDS011;34005;48.844;10.098;2023-09-12T10:08:44;5.00;;;4.43;;
48215;SDS011;34005;48.844;10.098;2023-09-12T10:11:14;5.28;;;4.88;;
48215;SDS011;34005;48.844;10.098;2023-09-12T10:13:43;6.07;;;4.82;;
48215;SDS011;34005;48.844;10.098;2023-09-12T10:16:17;6.28;;;4.43;;
48215;SDS011;34005;48.844;10.098;2023-09-12T10:18:49;6.63;;;4.60;;
48215;SDS011;34005;48.844;10.098;2023-09-12T10:21:27;7.53;;;5.00;;
48215;SDS011;34005;48.844;10.098;2023-09-12T10:23:58;19.15;;;5.35;;
48215;SDS011;34005;48.844;10.098;2023-09-12T10:26:27;6.65;;;5.03;;
48215;SDS011;34005;48.844;10.098;2023-09-12T10:28:55;7.22;;;4.65;;
48215;SDS011;34005;48.844;10.098;2023-09-12T10:31:28;8.10;;;6.00;;
48215;SDS011;34005;48.844;10.098;2023-09-12T10:33:56;5.32;;;4.82;;
48215;SDS011;34005;48.844;10.098;2023-09-12T10:36:25;6.22;;;5.32;;
48215;SDS011;34005;48.844;10.098;2023-09-12T10:38:54;5.45;;;4.55;;
48215;SDS011;34005;48.844;10.098;2023-09-12T10:41:22;5.55;;;4.75;;
48215;SDS011;34005;48.844;10.098;2023-09-12T10:43:51;5.57;;;5.05;;
48215;SDS011;34005;48.844;10.098;2023-09-12T10:46:21;6.13;;;5.32;;
48215;SDS011;34005;48.844;10.098;2023-09-12T10:48:51;5.30;;;4.65;;
48215;SDS011;34005;48.844;10.098;2023-09-12T10:51:19;5.78;;;5.13;;
48215;SDS011;34005;48.844;10.098;2023-09-12T10:53:47;5.28;;;4.78;;
48215;SDS011;34005;48.844;10.098;2023-09-12T10:56:17;5.72;;;5.10;;
48215;SDS011;34005;48.844;10.098;2023-09-12T11:01:37;8.63;;;5.20;;
48215;SDS011;34005;48.844;10.098;2023-09-12T11:07:00;5.18;;;4.70;;
48215;SDS011;34005;48.844;10.098;2023-09-12T11:09:28;7.82;;;4.68;;
48215;SDS011;34005;48.844;10.098;2023-09-12T11:11:57;5.18;;;4.68;;
48215;SDS011;34005;48.844;10.098;2023-09-12T11:14:29;8.30;;;5.10;;
48215;SDS011;34005;48.844;10.098;2023-09-12T11:19:52;5.88;;;4.90;;
48215;SDS011;34005;48.844;10.098;2023-09-12T11:22:20;6.47;;;4.82;;
48215;SDS011;34005;48.844;10.098;2023-09-12T11:24:49;6.50;;;5.13;;
48215;SDS011;34005;48.844;10.098;2023-09-12T11:27:17;8.35;;;5.10;;
48215;SDS011;34005;48.844;10.098;2023-09-12T11:29:45;10.98;;;5.50;;
48215;SDS011;34005;48.844;10.098;2023-09-12T11:32:24;6.40;;;5.05;;
48215;SDS011;34005;48.844;10.098;2023-09-12T11:34:55;6.72;;;5.40;;
48215;SDS011;34005;48.844;10.098;2023-09-12T11:37:23;6.65;;;4.75;;
48215;SDS011;34005;48.844;10.098;2023-09-12T11:39:52;5.65;;;5.03;;
48215;SDS011;34005;48.844;10.098;2023-09-12T11:42:20;5.43;;;4.65;;
48215;SDS011;34005;48.844;10.098;2023-09-12T11:44:51;8.43;;;5.10;;
48215;SDS011;34005;48.844;10.098;2023-09-12T11:47:19;7.13;;;4.85;;
48215;SDS011;34005;48.844;10.098;2023-09-12T11:49:48;5.57;;;4.88;;
48215;SDS011;34005;48.844;10.098;2023-09-12T11:52:17;5.25;;;4.53;;
48215;SDS011;34005;48.844;10.098;2023-09-12T11:54:46;5.63;;;4.82;;
48215;SDS011;34005;48.844;10.098;2023-09-12T11:57:15;5.68;;;4.30;;
48215;SDS011;34005;48.844;10.098;2023-09-12T11:59:43;8.52;;;5.13;;
48215;SDS011;34005;48.844;10.098;2023-09-12T12:02:13;8.43;;;4.82;;
48215;SDS011;34005;48.844;10.098;2023-09-12T12:04:41;6.40;;;4.70;;
48215;SDS011;34005;48.844;10.098;2023-09-12T12:07:09;8.55;;;4.72;;
48215;SDS011;34005;48.844;10.098;2023-09-12T12:09:39;6.55;;;4.50;;
48215;SDS011;34005;48.844;10.098;2023-09-12T12:12:10;7.72;;;4.95;;
48215;SDS011;34005;48.844;10.098;2023-09-12T12:14:39;8.32;;;4.57;;
48215;SDS011;34005;48.844;10.098;2023-09-12T12:17:08;5.57;;;4.78;;
48215;SDS011;34005;48.844;10.098;2023-09-12T12:19:37;5.80;;;4.50;;
48215;SDS011;34005;48.844;10.098;2023-09-12T12:22:05;7.65;;;4.40;;
48215;SDS011;34005;48.844;10.098;2023-09-12T12:24:37;4.95;;;4.45;;
48215;SDS011;34005;48.844;10.098;2023-09-12T12:27:07;6.43;;;4.78;;
48215;SDS011;34005;48.844;10.098;2023-09-12T12:29:37;5.28;;;4.57;;
48215;SDS011;34005;48.844;10.098;2023-09-12T12:32:06;6.88;;;4.55;;
48215;SDS011;34005;48.844;10.098;2023-09-12T12:34:36;9.73;;;5.18;;
48215;SDS011;34005;48.844;10.098;2023-09-12T12:37:27;8.50;;;5.05;;
48215;SDS011;34005;48.844;10.098;2023-09-12T12:39:57;8.27;;;4.75;;
48215;SDS011;34005;48.844;10.098;2023-09-12T12:42:32;5.88;;;4.35;;
48215;SDS011;34005;48.844;10.098;2023-09-12T12:45:14;10.68;;;5.13;;
48215;SDS011;34005;48.844;10.098;2023-09-12T12:47:43;7.43;;;4.80;;
48215;SDS011;34005;48.844;10.098;2023-09-12T12:50:12;6.93;;;4.97;;
48215;SDS011;34005;48.844;10.098;2023-09-12T12:52:40;7.47;;;5.15;;
48215;SDS011;34005;48.844;10.098;2023-09-12T12:55:09;9.63;;;4.45;;
48215;SDS011;34005;48.844;10.098;2023-09-12T12:57:39;4.90;;;4.40;;
48215;SDS011;34005;48.844;10.098;2023-09-12T13:00:08;7.88;;;5.20;;
48215;SDS011;34005;48.844;10.098;2023-09-12T13:02:38;6.35;;;5.13;;
48215;SDS011;34005;48.844;10.098;2023-09-12T13:05:06;6.63;;;5.20;;
48215;SDS011;34005;48.844;10.098;2023-09-12T13:07:49;5.95;;;4.65;;
48215;SDS011;34005;48.844;10.098;2023-09-12T13:10:17;5.32;;;4.80;;
48215;SDS011;34005;48.844;10.098;2023-09-12T13:12:46;7.00;;;4.53;;
48215;SDS011;34005;48.844;10.098;2023-09-12T13:15:14;7.57;;;4.22;;
48215;SDS011;34005;48.844;10.098;2023-09-12T13:17:43;5.78;;;4.60;;
48215;SDS011;34005;48.844;10.098;2023-09-12T13:20:11;8.48;;;5.22;;
48215;SDS011;34005;48.844;10.098;2023-09-12T13:22:39;7.22;;;4.70;;
48215;SDS011;34005;48.844;10.098;2023-09-12T13:25:07;7.22;;;5.00;;
48215;SDS011;34005;48.844;10.098;2023-09-12T13:27:35;5.43;;;4.93;;
48215;SDS011;34005;48.844;10.098;2023-09-12T13:30:05;7.60;;;4.38;;
48215;SDS011;34005;48.844;10.098;2023-09-12T13:32:33;6.30;;;4.30;;
48215;SDS011;34005;48.844;10.098;2023-09-12T13:35:01;4.85;;;4.38;;
48215;SDS011;34005;48.844;10.098;2023-09-12T13:37:29;5.32;;;4.72;;
48215;SDS011;34005;48.844;10.098;2023-09-12T13:39:57;5.18;;;4.68;;
48215;SDS011;34005;48.844;10.098;2023-09-12T13:42:25;7.03;;;4.53;;
48215;SDS011;34005;48.844;10.098;2023-09-12T13:44:57;7.88;;;4.72;;
48215;SDS011;34005;48.844;10.098;2023-09-12T13:47:26;5.38;;;4.45;;
48215;SDS011;34005;48.844;10.098;2023-09-12T13:49:53;6.90;;;4.32;;
48215;SDS011;34005;48.844;10.098;2023-09-12T13:52:21;4.78;;;4.38;;
48215;SDS011;34005;48.844;10.098;2023-09-12T13:54:49;5.82;;;4.20;;
48215;SDS011;34005;48.844;10.098;2023-09-12T13:57:16;8.07;;;4.90;;
48215;SDS011;34005;48.844;10.098;2023-09-12T13:59:44;7.18;;;4.53;;
48215;SDS011;34005;48.844;10.098;2023-09-12T14:02:12;6.03;;;3.78;;
48215;SDS011;34005;48.844;10.098;2023-09-12T14:04:41;5.18;;;3.95;;
48215;SDS011;34005;48.844;10.098;2023-09-12T14:07:10;5.13;;;4.57;;
48215;SDS011;34005;48.844;10.098;2023-09-12T14:09:38;5.47;;;4.57;;
48215;SDS011;34005;48.844;10.098;2023-09-12T14:12:06;9.45;;;4.85;;
48215;SDS011;34005;48.844;10.098;2023-09-12T14:14:49;4.85;;;4.45;;
48215;SDS011;34005;48.844;10.098;2023-09-12T14:17:32;9.25;;;4.53;;
48215;SDS011;34005;48.844;10.098;2023-09-12T14:20:03;6.72;;;4.32;;
48215;SDS011;34005;48.844;10.098;2023-09-12T14:22:32;4.85;;;3.85;;
48215;SDS011;34005;48.844;10.098;2023-09-12T14:25:01;5.43;;;4.82;;
48215;SDS011;34005;48.844;10.098;2023-09-12T14:27:29;4.55;;;4.15;;
48215;SDS011;34005;48.844;10.098;2023-09-12T14:29:56;5.50;;;4.65;;
48215;SDS011;34005;48.844;10.098;2023-09-12T14:32:25;7.18;;;4.53;;
48215;SDS011;34005;48.844;10.098;2023-09-12T14:34:53;6.75;;;4.82;;
48215;SDS011;34005;48.844;10.098;2023-09-12T14:37:22;6.13;;;4.20;;
48215;SDS011;34005;48.844;10.098;2023-09-12T14:39:53;5.05;;;4.15;;
48215;SDS011;34005;48.844;10.098;2023-09-12T14:42:21;7.32;;;4.50;;
48215;SDS011;34005;48.844;10.098;2023-09-12T14:44:49;6.50;;;4.38;;
48215;SDS011;34005;48.844;10.098;2023-09-12T14:47:17;5.40;;;4.53;;
48215;SDS011;34005;48.844;10.098;2023-09-12T14:49:44;6.70;;;4.10;;
48215;SDS011;34005;48.844;10.098;2023-09-12T14:52:17;5.53;;;4.53;;
48215;SDS011;34005;48.844;10.098;2023-09-12T14:54:54;9.23;;;4.60;;
48215;SDS011;34005;48.844;10.098;2023-09-12T14:57:24;4.65;;;3.83;;
48215;SDS011;34005;48.844;10.098;2023-09-12T14:59:52;7.13;;;4.25;;
48215;SDS011;34005;48.844;10.098;2023-09-12T15:02:21;7.80;;;4.25;;
48215;SDS011;34005;48.844;10.098;2023-09-12T15:04:49;5.03;;;4.50;;